sensor_id;sensor_type;location;lat;lon;timestamp;temperature;humidity
12115;DHT22;6121;49.810;6.418;2023-05-23T00:00:59;16.60;99.90
12115;DHT22;6121;49.810;6.418;2023-05-23T00:03:26;16.60;99.90
12115;DHT22;6121;49.810;6.418;2023-05-23T00:05:53;16.70;99.90
12115;DHT22;6121;49.810;6.418;2023-05-23T00:08:21;16.80;99.90
12115;DHT22;6121;49.810;6.418;2023-05-23T00:10:48;16.80;99.90
12115;DHT22;6121;49.810;6.418;2023-05-23T00:13:14;16.80;99.90
12115;DHT22;6121;49.810;6.418;2023-05-23T00:15:41;16.60;99.90
12115;DHT22;6121;49.810;6.418;2023-05-23T00:18:08;16.60;99.90
12115;DHT22;6121;49.810;6.418;2023-05-23T00:20:40;16.50;99.90
12115;DHT22;6121;49.810;6.418;2023-05-23T00:23:07;16.50;99.90
12115;DHT22;6121;49.810;6.418;2023-05-23T00:25:35;16.50;99.90
12115;DHT22;6121;49.810;6.418;2023-05-23T00:28:02;16.60;99.90
12115;DHT22;6121;49.810;6.418;2023-05-23T00:30:32;16.50;99.90
12115;DHT22;6121;49.810;6.418;2023-05-23T00:32:58;16.50;99.90
12115;DHT22;6121;49.810;6.418;2023-05-23T00:35:25;16.50;99.90
12115;DHT22;6121;49.810;6.418;2023-05-23T00:37:51;16.40;99.90
12115;DHT22;6121;49.810;6.418;2023-05-23T00:40:18;16.40;99.90
12115;DHT22;6121;49.810;6.418;2023-05-23T00:42:44;16.20;99.90
12115;DHT22;6121;49.810;6.418;2023-05-23T00:45:11;16.10;99.90
12115;DHT22;6121;49.810;6.418;2023-05-23T00:47:38;15.90;99.90
12115;DHT22;6121;49.810;6.418;2023-05-23T00:50:07;16.00;99.90
12115;DHT22;6121;49.810;6.418;2023-05-23T00:52:34;16.10;99.90
12115;DHT22;6121;49.810;6.418;2023-05-23T00:55:00;16.00;99.90
12115;DHT22;6121;49.810;6.418;2023-05-23T00:57:31;16.00;99.90
12115;DHT22;6121;49.810;6.418;2023-05-23T01:00:02;16.00;99.90
12115;DHT22;6121;49.810;6.418;2023-05-23T01:02:31;16.00;99.90
12115;DHT22;6121;49.810;6.418;2023-05-23T01:04:58;16.00;99.90
12115;DHT22;6121;49.810;6.418;2023-05-23T01:07:24;16.00;99.90
12115;DHT22;6121;49.810;6.418;2023-05-23T01:09:50;16.00;99.90
12115;DHT22;6121;49.810;6.418;2023-05-23T01:15:30;15.90;99.90
12115;DHT22;6121;49.810;6.418;2023-05-23T01:18:17;15.90;99.90
12115;DHT22;6121;49.810;6.418;2023-05-23T01:20:49;15.80;99.90
12115;DHT22;6121;49.810;6.418;2023-05-23T01:26:30;15.60;99.90
12115;DHT22;6121;49.810;6.418;2023-05-23T01:29:23;15.70;99.90
12115;DHT22;6121;49.810;6.418;2023-05-23T01:31:52;15.50;99.90
12115;DHT22;6121;49.810;6.418;2023-05-23T01:34:20;15.50;99.90
12115;DHT22;6121;49.810;6.418;2023-05-23T01:36:57;15.50;99.90
12115;DHT22;6121;49.810;6.418;2023-05-23T01:39:23;15.60;99.90
12115;DHT22;6121;49.810;6.418;2023-05-23T01:41:49;15.70;99.90
12115;DHT22;6121;49.810;6.418;2023-05-23T01:44:16;15.60;99.90
12115;DHT22;6121;49.810;6.418;2023-05-23T01:46:43;15.50;99.90
12115;DHT22;6121;49.810;6.418;2023-05-23T01:49:14;15.50;99.90
12115;DHT22;6121;49.810;6.418;2023-05-23T01:51:42;15.50;99.90
12115;DHT22;6121;49.810;6.418;2023-05-23T01:54:08;15.50;99.90
12115;DHT22;6121;49.810;6.418;2023-05-23T01:56:34;15.40;99.90
12115;DHT22;6121;49.810;6.418;2023-05-23T01:59:02;15.30;99.90
12115;DHT22;6121;49.810;6.418;2023-05-23T02:01:29;15.20;99.90
12115;DHT22;6121;49.810;6.418;2023-05-23T02:03:57;15.20;99.90
12115;DHT22;6121;49.810;6.418;2023-05-23T02:06:24;15.20;99.90
12115;DHT22;6121;49.810;6.418;2023-05-23T02:08:50;15.30;99.90
12115;DHT22;6121;49.810;6.418;2023-05-23T02:11:16;15.20;99.90
12115;DHT22;6121;49.810;6.418;2023-05-23T02:13:42;15.20;99.90
12115;DHT22;6121;49.810;6.418;2023-05-23T02:16:08;15.30;99.90
12115;DHT22;6121;49.810;6.418;2023-05-23T02:18:34;14.90;99.90
12115;DHT22;6121;49.810;6.418;2023-05-23T02:21:06;15.10;99.90
12115;DHT22;6121;49.810;6.418;2023-05-23T02:23:32;15.00;99.90
12115;DHT22;6121;49.810;6.418;2023-05-23T02:25:58;15.00;99.90
12115;DHT22;6121;49.810;6.418;2023-05-23T02:28:24;14.90;99.90
12115;DHT22;6121;49.810;6.418;2023-05-23T02:30:50;14.90;99.90
12115;DHT22;6121;49.810;6.418;2023-05-23T02:33:16;14.80;99.90
12115;DHT22;6121;49.810;6.418;2023-05-23T02:35:42;14.60;99.90
12115;DHT22;6121;49.810;6.418;2023-05-23T02:38:09;14.70;99.90
12115;DHT22;6121;49.810;6.418;2023-05-23T02:40:39;14.70;99.90
12115;DHT22;6121;49.810;6.418;2023-05-23T02:43:05;14.70;99.90
12115;DHT22;6121;49.810;6.418;2023-05-23T02:45:32;14.60;99.90
12115;DHT22;6121;49.810;6.418;2023-05-23T02:47:58;14.60;99.90
12115;DHT22;6121;49.810;6.418;2023-05-23T02:50:24;14.60;99.90
12115;DHT22;6121;49.810;6.418;2023-05-23T02:52:51;14.60;99.90
12115;DHT22;6121;49.810;6.418;2023-05-23T02:55:18;14.60;99.90
12115;DHT22;6121;49.810;6.418;2023-05-23T02:57:46;14.50;99.90
12115;DHT22;6121;49.810;6.418;2023-05-23T03:00:12;14.50;99.90
12115;DHT22;6121;49.810;6.418;2023-05-23T03:02:41;14.50;99.90
12115;DHT22;6121;49.810;6.418;2023-05-23T03:05:08;14.40;99.90
12115;DHT22;6121;49.810;6.418;2023-05-23T03:07:34;14.40;99.90
12115;DHT22;6121;49.810;6.418;2023-05-23T03:10:00;14.40;99.90
12115;DHT22;6121;49.810;6.418;2023-05-23T03:12:27;14.50;99.90
12115;DHT22;6121;49.810;6.418;2023-05-23T03:14:54;14.20;99.90
12115;DHT22;6121;49.810;6.418;2023-05-23T03:17:21;14.30;99.90
12115;DHT22;6121;49.810;6.418;2023-05-23T03:19:46;14.30;99.90
12115;DHT22;6121;49.810;6.418;2023-05-23T03:22:12;14.20;99.90
12115;DHT22;6121;49.810;6.418;2023-05-23T03:24:38;14.20;99.90
12115;DHT22;6121;49.810;6.418;2023-05-23T03:27:04;14.30;99.90
12115;DHT22;6121;49.810;6.418;2023-05-23T03:29:30;14.10;99.90
12115;DHT22;6121;49.810;6.418;2023-05-23T03:31:57;14.00;99.90
12115;DHT22;6121;49.810;6.418;2023-05-23T03:34:23;14.10;99.90
12115;DHT22;6121;49.810;6.418;2023-05-23T03:36:51;14.20;99.90
12115;DHT22;6121;49.810;6.418;2023-05-23T03:39:17;14.30;99.90
12115;DHT22;6121;49.810;6.418;2023-05-23T03:41:44;14.40;99.90
12115;DHT22;6121;49.810;6.418;2023-05-23T03:44:10;14.40;99.90
12115;DHT22;6121;49.810;6.418;2023-05-23T03:46:36;14.30;99.90
12115;DHT22;6121;49.810;6.418;2023-05-23T03:49:02;14.30;99.90
12115;DHT22;6121;49.810;6.418;2023-05-23T03:51:28;14.30;99.90
12115;DHT22;6121;49.810;6.418;2023-05-23T03:53:54;14.30;99.90
12115;DHT22;6121;49.810;6.418;2023-05-23T03:56:20;14.20;99.90
12115;DHT22;6121;49.810;6.418;2023-05-23T03:58:47;14.20;99.90
12115;DHT22;6121;49.810;6.418;2023-05-23T04:01:15;14.30;99.90
12115;DHT22;6121;49.810;6.418;2023-05-23T04:03:41;14.30;99.90
12115;DHT22;6121;49.810;6.418;2023-05-23T04:06:07;14.20;99.90
12115;DHT22;6121;49.810;6.418;2023-05-23T04:08:36;14.30;99.90
12115;DHT22;6121;49.810;6.418;2023-05-23T04:11:01;14.40;99.90
12115;DHT22;6121;49.810;6.418;2023-05-23T04:13:31;14.50;99.90
12115;DHT22;6121;49.810;6.418;2023-05-23T04:15:59;14.50;99.90
12115;DHT22;6121;49.810;6.418;2023-05-23T04:18:26;14.50;99.90
12115;DHT22;6121;49.810;6.418;2023-05-23T04:20:53;14.50;99.90
12115;DHT22;6121;49.810;6.418;2023-05-23T04:23:19;14.50;99.90
12115;DHT22;6121;49.810;6.418;2023-05-23T04:25:49;14.50;99.90
12115;DHT22;6121;49.810;6.418;2023-05-23T04:28:24;14.50;99.90
12115;DHT22;6121;49.810;6.418;2023-05-23T04:30:51;14.50;99.90
12115;DHT22;6121;49.810;6.418;2023-05-23T04:33:21;14.50;99.90
12115;DHT22;6121;49.810;6.418;2023-05-23T04:35:47;14.60;99.90
12115;DHT22;6121;49.810;6.418;2023-05-23T04:38:14;14.60;99.90
12115;DHT22;6121;49.810;6.418;2023-05-23T04:40:42;14.70;99.90
12115;DHT22;6121;49.810;6.418;2023-05-23T04:43:19;14.80;99.90
12115;DHT22;6121;49.810;6.418;2023-05-23T04:45:51;14.90;99.90
12115;DHT22;6121;49.810;6.418;2023-05-23T04:48:39;14.90;99.90
12115;DHT22;6121;49.810;6.418;2023-05-23T04:51:07;14.90;99.90
12115;DHT22;6121;49.810;6.418;2023-05-23T04:53:34;14.90;99.90
12115;DHT22;6121;49.810;6.418;2023-05-23T04:56:01;15.00;99.90
12115;DHT22;6121;49.810;6.418;2023-05-23T04:58:29;15.00;99.90
12115;DHT22;6121;49.810;6.418;2023-05-23T05:01:00;15.10;99.90
12115;DHT22;6121;49.810;6.418;2023-05-23T05:03:27;15.20;99.90
12115;DHT22;6121;49.810;6.418;2023-05-23T05:05:53;15.20;99.90
12115;DHT22;6121;49.810;6.418;2023-05-23T05:08:19;15.40;99.90
12115;DHT22;6121;49.810;6.418;2023-05-23T05:10:46;15.40;99.90
12115;DHT22;6121;49.810;6.418;2023-05-23T05:13:13;15.50;99.90
12115;DHT22;6121;49.810;6.418;2023-05-23T05:15:48;15.60;99.90
12115;DHT22;6121;49.810;6.418;2023-05-23T05:18:14;15.70;99.90
12115;DHT22;6121;49.810;6.418;2023-05-23T05:20:41;15.70;99.90
12115;DHT22;6121;49.810;6.418;2023-05-23T05:23:07;15.70;99.90
12115;DHT22;6121;49.810;6.418;2023-05-23T05:25:35;15.70;99.90
12115;DHT22;6121;49.810;6.418;2023-05-23T05:28:03;15.70;99.90
12115;DHT22;6121;49.810;6.418;2023-05-23T05:30:36;15.80;99.90
12115;DHT22;6121;49.810;6.418;2023-05-23T05:33:02;15.70;99.90
12115;DHT22;6121;49.810;6.418;2023-05-23T05:35:30;15.80;99.90
12115;DHT22;6121;49.810;6.418;2023-05-23T05:37:58;15.70;99.90
12115;DHT22;6121;49.810;6.418;2023-05-23T05:40:24;15.80;99.90
12115;DHT22;6121;49.810;6.418;2023-05-23T05:42:50;15.80;99.90
12115;DHT22;6121;49.810;6.418;2023-05-23T05:45:16;15.90;99.90
12115;DHT22;6121;49.810;6.418;2023-05-23T05:47:44;16.00;99.90
12115;DHT22;6121;49.810;6.418;2023-05-23T05:50:10;16.00;99.90
12115;DHT22;6121;49.810;6.418;2023-05-23T05:52:36;16.10;99.90
12115;DHT22;6121;49.810;6.418;2023-05-23T05:55:07;16.10;99.90
12115;DHT22;6121;49.810;6.418;2023-05-23T05:57:34;16.10;99.90
12115;DHT22;6121;49.810;6.418;2023-05-23T06:00:11;16.10;99.90
12115;DHT22;6121;49.810;6.418;2023-05-23T06:02:45;16.10;99.90
12115;DHT22;6121;49.810;6.418;2023-05-23T06:05:21;16.20;99.90
12115;DHT22;6121;49.810;6.418;2023-05-23T06:07:47;16.30;99.90
12115;DHT22;6121;49.810;6.418;2023-05-23T06:10:14;16.30;99.90
12115;DHT22;6121;49.810;6.418;2023-05-23T06:12:41;16.30;99.90
12115;DHT22;6121;49.810;6.418;2023-05-23T06:15:07;16.30;99.90
12115;DHT22;6121;49.810;6.418;2023-05-23T06:17:36;16.30;99.90
12115;DHT22;6121;49.810;6.418;2023-05-23T06:20:02;16.30;99.90
12115;DHT22;6121;49.810;6.418;2023-05-23T06:22:30;16.30;99.90
12115;DHT22;6121;49.810;6.418;2023-05-23T06:24:56;16.20;99.90
12115;DHT22;6121;49.810;6.418;2023-05-23T06:27:23;16.30;99.90
12115;DHT22;6121;49.810;6.418;2023-05-23T06:29:48;16.40;99.90
12115;DHT22;6121;49.810;6.418;2023-05-23T06:32:14;16.40;99.90
12115;DHT22;6121;49.810;6.418;2023-05-23T06:34:40;16.40;99.90
12115;DHT22;6121;49.810;6.418;2023-05-23T06:37:06;16.50;99.90
12115;DHT22;6121;49.810;6.418;2023-05-23T06:39:32;16.50;99.90
12115;DHT22;6121;49.810;6.418;2023-05-23T06:41:58;16.50;99.90
12115;DHT22;6121;49.810;6.418;2023-05-23T06:44:24;16.60;99.90
12115;DHT22;6121;49.810;6.418;2023-05-23T06:46:53;16.50;99.90
12115;DHT22;6121;49.810;6.418;2023-05-23T06:49:24;16.50;99.90
12115;DHT22;6121;49.810;6.418;2023-05-23T06:51:51;16.60;99.90
12115;DHT22;6121;49.810;6.418;2023-05-23T06:54:18;16.60;99.90
12115;DHT22;6121;49.810;6.418;2023-05-23T06:56:44;16.70;99.90
12115;DHT22;6121;49.810;6.418;2023-05-23T06:59:10;16.70;99.90
12115;DHT22;6121;49.810;6.418;2023-05-23T07:01:36;16.80;99.90
12115;DHT22;6121;49.810;6.418;2023-05-23T07:04:01;16.80;99.90
12115;DHT22;6121;49.810;6.418;2023-05-23T07:06:28;16.80;99.90
12115;DHT22;6121;49.810;6.418;2023-05-23T07:08:54;16.80;99.90
12115;DHT22;6121;49.810;6.418;2023-05-23T07:11:21;16.80;99.90
12115;DHT22;6121;49.810;6.418;2023-05-23T07:13:52;16.80;99.90
12115;DHT22;6121;49.810;6.418;2023-05-23T07:16:32;16.80;99.90
12115;DHT22;6121;49.810;6.418;2023-05-23T07:19:04;16.90;99.90
12115;DHT22;6121;49.810;6.418;2023-05-23T07:21:36;17.20;99.90
12115;DHT22;6121;49.810;6.418;2023-05-23T07:24:03;17.40;99.90
12115;DHT22;6121;49.810;6.418;2023-05-23T07:26:29;17.80;99.90
12115;DHT22;6121;49.810;6.418;2023-05-23T07:28:55;18.10;99.90
12115;DHT22;6121;49.810;6.418;2023-05-23T07:31:21;18.40;99.90
12115;DHT22;6121;49.810;6.418;2023-05-23T07:33:50;18.60;99.90
12115;DHT22;6121;49.810;6.418;2023-05-23T07:36:21;18.70;99.90
12115;DHT22;6121;49.810;6.418;2023-05-23T07:38:48;18.70;99.90
12115;DHT22;6121;49.810;6.418;2023-05-23T07:41:14;18.80;99.90
12115;DHT22;6121;49.810;6.418;2023-05-23T07:43:40;18.80;99.90
12115;DHT22;6121;49.810;6.418;2023-05-23T07:46:06;18.60;99.90
12115;DHT22;6121;49.810;6.418;2023-05-23T07:48:32;18.50;99.90
12115;DHT22;6121;49.810;6.418;2023-05-23T07:50:58;18.60;99.90
12115;DHT22;6121;49.810;6.418;2023-05-23T07:53:24;18.50;99.90
12115;DHT22;6121;49.810;6.418;2023-05-23T07:55:51;18.50;99.90
12115;DHT22;6121;49.810;6.418;2023-05-23T07:58:17;18.70;99.90
12115;DHT22;6121;49.810;6.418;2023-05-23T08:00:44;18.70;99.90
12115;DHT22;6121;49.810;6.418;2023-05-23T08:03:23;19.00;99.90
12115;DHT22;6121;49.810;6.418;2023-05-23T08:06:00;19.10;99.90
12115;DHT22;6121;49.810;6.418;2023-05-23T08:08:26;19.10;99.90
12115;DHT22;6121;49.810;6.418;2023-05-23T08:10:52;19.20;99.90
12115;DHT22;6121;49.810;6.418;2023-05-23T08:13:23;19.20;99.90
12115;DHT22;6121;49.810;6.418;2023-05-23T08:16:09;19.30;99.90
12115;DHT22;6121;49.810;6.418;2023-05-23T08:18:35;19.50;99.90
12115;DHT22;6121;49.810;6.418;2023-05-23T08:21:01;19.30;99.90
12115;DHT22;6121;49.810;6.418;2023-05-23T08:23:29;19.30;99.90
12115;DHT22;6121;49.810;6.418;2023-05-23T08:25:55;19.60;99.90
12115;DHT22;6121;49.810;6.418;2023-05-23T08:28:22;19.80;99.90
12115;DHT22;6121;49.810;6.418;2023-05-23T08:30:52;19.70;99.90
12115;DHT22;6121;49.810;6.418;2023-05-23T08:33:19;19.90;99.90
12115;DHT22;6121;49.810;6.418;2023-05-23T08:35:47;20.10;99.90
12115;DHT22;6121;49.810;6.418;2023-05-23T08:38:14;20.20;99.90
12115;DHT22;6121;49.810;6.418;2023-05-23T08:41:00;20.20;99.90
12115;DHT22;6121;49.810;6.418;2023-05-23T08:43:27;20.20;99.90
12115;DHT22;6121;49.810;6.418;2023-05-23T08:45:53;20.20;99.90
12115;DHT22;6121;49.810;6.418;2023-05-23T08:48:21;20.20;99.90
12115;DHT22;6121;49.810;6.418;2023-05-23T08:50:51;20.30;99.90
12115;DHT22;6121;49.810;6.418;2023-05-23T08:53:20;20.30;99.90
12115;DHT22;6121;49.810;6.418;2023-05-23T08:55:52;20.10;99.90
12115;DHT22;6121;49.810;6.418;2023-05-23T08:58:22;20.20;99.90
12115;DHT22;6121;49.810;6.418;2023-05-23T09:00:54;20.10;99.90
12115;DHT22;6121;49.810;6.418;2023-05-23T09:03:21;19.90;99.90
12115;DHT22;6121;49.810;6.418;2023-05-23T09:06:03;19.90;99.90
12115;DHT22;6121;49.810;6.418;2023-05-23T09:08:31;19.80;99.90
12115;DHT22;6121;49.810;6.418;2023-05-23T09:10:58;19.70;99.90
12115;DHT22;6121;49.810;6.418;2023-05-23T09:13:29;19.60;99.90
12115;DHT22;6121;49.810;6.418;2023-05-23T09:18:41;19.50;99.90
12115;DHT22;6121;49.810;6.418;2023-05-23T09:21:09;19.30;99.90
12115;DHT22;6121;49.810;6.418;2023-05-23T09:23:40;19.40;99.90
12115;DHT22;6121;49.810;6.418;2023-05-23T09:26:09;19.30;99.90
12115;DHT22;6121;49.810;6.418;2023-05-23T09:28:37;19.20;99.90
12115;DHT22;6121;49.810;6.418;2023-05-23T09:31:04;19.20;99.90
12115;DHT22;6121;49.810;6.418;2023-05-23T09:33:47;19.00;99.90
12115;DHT22;6121;49.810;6.418;2023-05-23T09:36:14;19.10;99.90
12115;DHT22;6121;49.810;6.418;2023-05-23T09:38:41;19.20;99.90
12115;DHT22;6121;49.810;6.418;2023-05-23T09:41:09;19.10;99.90
12115;DHT22;6121;49.810;6.418;2023-05-23T09:43:48;19.10;99.90
12115;DHT22;6121;49.810;6.418;2023-05-23T09:46:14;19.10;99.90
12115;DHT22;6121;49.810;6.418;2023-05-23T09:48:41;19.00;99.90
12115;DHT22;6121;49.810;6.418;2023-05-23T09:51:11;19.00;99.90
12115;DHT22;6121;49.810;6.418;2023-05-23T09:53:36;18.90;99.90
12115;DHT22;6121;49.810;6.418;2023-05-23T09:56:03;19.00;99.90
12115;DHT22;6121;49.810;6.418;2023-05-23T09:58:29;19.00;99.90
12115;DHT22;6121;49.810;6.418;2023-05-23T10:00:55;19.00;99.90
12115;DHT22;6121;49.810;6.418;2023-05-23T10:06:12;19.00;99.90
12115;DHT22;6121;49.810;6.418;2023-05-23T10:08:49;19.20;99.90
12115;DHT22;6121;49.810;6.418;2023-05-23T10:13:48;19.30;99.90
12115;DHT22;6121;49.810;6.418;2023-05-23T10:19:09;19.30;99.90
12115;DHT22;6121;49.810;6.418;2023-05-23T10:21:42;19.30;99.90
12115;DHT22;6121;49.810;6.418;2023-05-23T10:24:10;19.30;99.90
12115;DHT22;6121;49.810;6.418;2023-05-23T10:26:36;19.30;99.90
12115;DHT22;6121;49.810;6.418;2023-05-23T10:29:06;19.30;99.90
12115;DHT22;6121;49.810;6.418;2023-05-23T10:31:32;19.30;99.90
12115;DHT22;6121;49.810;6.418;2023-05-23T10:34:11;19.10;99.90
12115;DHT22;6121;49.810;6.418;2023-05-23T10:36:44;19.00;99.90
12115;DHT22;6121;49.810;6.418;2023-05-23T10:42:02;19.00;99.90
12115;DHT22;6121;49.810;6.418;2023-05-23T10:44:29;19.10;99.90
12115;DHT22;6121;49.810;6.418;2023-05-23T10:46:59;19.10;99.90
12115;DHT22;6121;49.810;6.418;2023-05-23T10:49:40;19.20;99.90
12115;DHT22;6121;49.810;6.418;2023-05-23T10:52:15;19.00;99.90
12115;DHT22;6121;49.810;6.418;2023-05-23T10:54:47;19.00;99.90
12115;DHT22;6121;49.810;6.418;2023-05-23T10:57:20;19.00;99.90
12115;DHT22;6121;49.810;6.418;2023-05-23T10:59:49;19.00;99.90
12115;DHT22;6121;49.810;6.418;2023-05-23T11:02:26;19.10;99.90
12115;DHT22;6121;49.810;6.418;2023-05-23T11:05:17;19.20;99.90
12115;DHT22;6121;49.810;6.418;2023-05-23T11:07:44;19.30;99.90
12115;DHT22;6121;49.810;6.418;2023-05-23T11:10:11;19.50;99.90
12115;DHT22;6121;49.810;6.418;2023-05-23T11:12:42;19.60;99.90
12115;DHT22;6121;49.810;6.418;2023-05-23T11:17:53;19.80;99.90
12115;DHT22;6121;49.810;6.418;2023-05-23T11:20:20;19.80;99.90
12115;DHT22;6121;49.810;6.418;2023-05-23T11:23:01;19.60;99.90
12115;DHT22;6121;49.810;6.418;2023-05-23T11:25:41;19.50;99.90
12115;DHT22;6121;49.810;6.418;2023-05-23T11:28:09;19.50;99.90
12115;DHT22;6121;49.810;6.418;2023-05-23T11:30:36;19.50;99.90
12115;DHT22;6121;49.810;6.418;2023-05-23T11:33:13;19.30;99.90
12115;DHT22;6121;49.810;6.418;2023-05-23T11:35:43;19.20;99.90
12115;DHT22;6121;49.810;6.418;2023-05-23T11:38:10;19.00;99.90
12115;DHT22;6121;49.810;6.418;2023-05-23T11:40:38;19.00;99.90
12115;DHT22;6121;49.810;6.418;2023-05-23T11:43:06;18.90;99.90
12115;DHT22;6121;49.810;6.418;2023-05-23T11:45:33;19.00;99.90
12115;DHT22;6121;49.810;6.418;2023-05-23T11:48:11;19.10;99.90
12115;DHT22;6121;49.810;6.418;2023-05-23T11:51:03;19.30;99.90
12115;DHT22;6121;49.810;6.418;2023-05-23T11:53:29;19.40;99.90
12115;DHT22;6121;49.810;6.418;2023-05-23T11:56:00;19.60;99.90
12115;DHT22;6121;49.810;6.418;2023-05-23T11:58:28;19.50;99.90
12115;DHT22;6121;49.810;6.418;2023-05-23T12:01:03;19.50;99.90
12115;DHT22;6121;49.810;6.418;2023-05-23T12:03:30;19.60;99.90
12115;DHT22;6121;49.810;6.418;2023-05-23T12:05:59;19.60;99.90
12115;DHT22;6121;49.810;6.418;2023-05-23T12:08:26;19.70;99.90
12115;DHT22;6121;49.810;6.418;2023-05-23T12:10:56;19.60;99.90
12115;DHT22;6121;49.810;6.418;2023-05-23T12:13:28;19.60;99.90
12115;DHT22;6121;49.810;6.418;2023-05-23T12:15:55;19.70;99.90
12115;DHT22;6121;49.810;6.418;2023-05-23T12:18:21;19.60;99.90
12115;DHT22;6121;49.810;6.418;2023-05-23T12:20:48;19.60;99.90
12115;DHT22;6121;49.810;6.418;2023-05-23T12:23:20;19.50;99.90
12115;DHT22;6121;49.810;6.418;2023-05-23T12:25:53;19.50;99.90
12115;DHT22;6121;49.810;6.418;2023-05-23T12:28:21;19.40;99.90
12115;DHT22;6121;49.810;6.418;2023-05-23T12:30:58;19.40;99.90
12115;DHT22;6121;49.810;6.418;2023-05-23T12:33:24;19.50;99.90
12115;DHT22;6121;49.810;6.418;2023-05-23T12:35:50;19.50;99.90
12115;DHT22;6121;49.810;6.418;2023-05-23T12:38:17;19.40;99.90
12115;DHT22;6121;49.810;6.418;2023-05-23T12:40:43;19.40;99.90
12115;DHT22;6121;49.810;6.418;2023-05-23T12:43:09;19.50;99.90
12115;DHT22;6121;49.810;6.418;2023-05-23T12:45:35;19.60;99.90
12115;DHT22;6121;49.810;6.418;2023-05-23T12:48:02;19.70;99.90
12115;DHT22;6121;49.810;6.418;2023-05-23T12:50:29;19.60;99.90
12115;DHT22;6121;49.810;6.418;2023-05-23T12:52:56;19.60;99.90
12115;DHT22;6121;49.810;6.418;2023-05-23T12:55:22;19.70;99.90
12115;DHT22;6121;49.810;6.418;2023-05-23T12:57:48;19.80;99.90
12115;DHT22;6121;49.810;6.418;2023-05-23T13:00:14;19.80;99.90
12115;DHT22;6121;49.810;6.418;2023-05-23T13:02:40;19.80;99.90
12115;DHT22;6121;49.810;6.418;2023-05-23T13:05:06;19.90;99.90
12115;DHT22;6121;49.810;6.418;2023-05-23T13:07:32;19.90;99.60
12115;DHT22;6121;49.810;6.418;2023-05-23T13:09:58;19.80;99.90
12115;DHT22;6121;49.810;6.418;2023-05-23T13:12:24;19.90;99.90
12115;DHT22;6121;49.810;6.418;2023-05-23T13:14:50;19.90;99.90
12115;DHT22;6121;49.810;6.418;2023-05-23T13:17:16;19.90;99.90
12115;DHT22;6121;49.810;6.418;2023-05-23T13:19:43;19.80;99.90
12115;DHT22;6121;49.810;6.418;2023-05-23T13:22:08;19.90;99.80
12115;DHT22;6121;49.810;6.418;2023-05-23T13:24:38;19.90;99.90
12115;DHT22;6121;49.810;6.418;2023-05-23T13:27:05;19.90;99.60
12115;DHT22;6121;49.810;6.418;2023-05-23T13:29:32;20.00;99.70
12115;DHT22;6121;49.810;6.418;2023-05-23T13:31:58;19.90;99.40
12115;DHT22;6121;49.810;6.418;2023-05-23T13:34:25;20.00;99.20
12115;DHT22;6121;49.810;6.418;2023-05-23T13:36:52;20.10;99.40
12115;DHT22;6121;49.810;6.418;2023-05-23T13:39:18;20.10;99.20
12115;DHT22;6121;49.810;6.418;2023-05-23T13:41:48;20.10;99.00
12115;DHT22;6121;49.810;6.418;2023-05-23T13:44:14;19.90;98.80
12115;DHT22;6121;49.810;6.418;2023-05-23T13:46:41;19.90;98.90
12115;DHT22;6121;49.810;6.418;2023-05-23T13:49:07;20.00;98.60
12115;DHT22;6121;49.810;6.418;2023-05-23T13:51:32;19.90;98.40
12115;DHT22;6121;49.810;6.418;2023-05-23T13:53:58;20.00;98.20
12115;DHT22;6121;49.810;6.418;2023-05-23T13:56:24;20.20;97.90
12115;DHT22;6121;49.810;6.418;2023-05-23T13:58:50;20.20;98.20
12115;DHT22;6121;49.810;6.418;2023-05-23T14:01:16;20.30;97.60
12115;DHT22;6121;49.810;6.418;2023-05-23T14:03:42;20.40;97.30
12115;DHT22;6121;49.810;6.418;2023-05-23T14:06:07;20.60;96.90
12115;DHT22;6121;49.810;6.418;2023-05-23T14:08:33;20.40;96.70
12115;DHT22;6121;49.810;6.418;2023-05-23T14:10:59;20.30;97.00
12115;DHT22;6121;49.810;6.418;2023-05-23T14:13:25;20.20;97.30
12115;DHT22;6121;49.810;6.418;2023-05-23T14:15:51;20.20;97.20
12115;DHT22;6121;49.810;6.418;2023-05-23T14:18:18;20.10;97.60
12115;DHT22;6121;49.810;6.418;2023-05-23T14:20:44;20.20;97.90
12115;DHT22;6121;49.810;6.418;2023-05-23T14:23:10;20.30;97.80
12115;DHT22;6121;49.810;6.418;2023-05-23T14:25:39;20.10;97.60
12115;DHT22;6121;49.810;6.418;2023-05-23T14:28:04;20.10;97.60
12115;DHT22;6121;49.810;6.418;2023-05-23T14:30:30;20.10;97.60
12115;DHT22;6121;49.810;6.418;2023-05-23T14:32:56;20.20;97.50
12115;DHT22;6121;49.810;6.418;2023-05-23T14:35:22;20.10;97.00
12115;DHT22;6121;49.810;6.418;2023-05-23T14:37:48;19.90;97.00
12115;DHT22;6121;49.810;6.418;2023-05-23T14:40:14;19.90;96.90
12115;DHT22;6121;49.810;6.418;2023-05-23T14:42:41;19.90;97.00
12115;DHT22;6121;49.810;6.418;2023-05-23T14:45:07;19.90;97.00
12115;DHT22;6121;49.810;6.418;2023-05-23T14:47:33;19.90;97.30
12115;DHT22;6121;49.810;6.418;2023-05-23T14:50:00;19.90;97.40
12115;DHT22;6121;49.810;6.418;2023-05-23T14:52:26;20.00;97.40
12115;DHT22;6121;49.810;6.418;2023-05-23T14:54:51;20.00;97.30
12115;DHT22;6121;49.810;6.418;2023-05-23T14:57:17;20.00;97.10
12115;DHT22;6121;49.810;6.418;2023-05-23T14:59:43;19.90;96.80
12115;DHT22;6121;49.810;6.418;2023-05-23T15:02:09;19.80;96.80
12115;DHT22;6121;49.810;6.418;2023-05-23T15:04:35;19.70;96.50
12115;DHT22;6121;49.810;6.418;2023-05-23T15:07:01;19.60;96.60
12115;DHT22;6121;49.810;6.418;2023-05-23T15:09:27;19.50;96.80
12115;DHT22;6121;49.810;6.418;2023-05-23T15:11:53;19.60;96.70
12115;DHT22;6121;49.810;6.418;2023-05-23T15:14:45;19.50;96.40
12115;DHT22;6121;49.810;6.418;2023-05-23T15:17:11;19.60;96.40
12115;DHT22;6121;49.810;6.418;2023-05-23T15:19:38;19.50;96.10
12115;DHT22;6121;49.810;6.418;2023-05-23T15:22:07;19.50;96.10
12115;DHT22;6121;49.810;6.418;2023-05-23T15:24:32;19.50;96.30
12115;DHT22;6121;49.810;6.418;2023-05-23T15:27:07;19.20;96.50
12115;DHT22;6121;49.810;6.418;2023-05-23T15:29:33;19.10;96.50
12115;DHT22;6121;49.810;6.418;2023-05-23T15:32:04;19.10;96.60
12115;DHT22;6121;49.810;6.418;2023-05-23T15:34:34;19.10;96.50
12115;DHT22;6121;49.810;6.418;2023-05-23T15:37:01;19.00;96.60
12115;DHT22;6121;49.810;6.418;2023-05-23T15:39:28;18.80;96.50
12115;DHT22;6121;49.810;6.418;2023-05-23T15:41:54;18.90;96.60
12115;DHT22;6121;49.810;6.418;2023-05-23T15:44:20;18.90;96.20
12115;DHT22;6121;49.810;6.418;2023-05-23T15:46:49;19.00;96.30
12115;DHT22;6121;49.810;6.418;2023-05-23T15:49:15;19.00;96.10
12115;DHT22;6121;49.810;6.418;2023-05-23T15:51:41;18.90;95.80
12115;DHT22;6121;49.810;6.418;2023-05-23T15:54:07;19.00;95.80
12115;DHT22;6121;49.810;6.418;2023-05-23T15:56:33;19.00;95.30
12115;DHT22;6121;49.810;6.418;2023-05-23T15:58:58;19.00;95.50
12115;DHT22;6121;49.810;6.418;2023-05-23T16:01:24;18.90;95.60
12115;DHT22;6121;49.810;6.418;2023-05-23T16:03:50;18.80;95.90
12115;DHT22;6121;49.810;6.418;2023-05-23T16:06:16;18.90;96.20
12115;DHT22;6121;49.810;6.418;2023-05-23T16:08:42;18.80;96.00
12115;DHT22;6121;49.810;6.418;2023-05-23T16:11:08;18.90;96.20
12115;DHT22;6121;49.810;6.418;2023-05-23T16:13:34;18.60;96.00